Time;durP1;ratioP1;P1;durP2;ratioP2;P2;SDS_P1;SDS_P2;PMS_P1;PMS_P2;Temp;Humidity;BMP_temperature;BMP_pressure;BME280_temperature;BME280_humidity;BME280_pressure;Samples;Min_cycle;Max_cycle;Signal;HPM_P1;HPM_P2
2022/12/21 00:00:50;;;;;;;;;31.75;28.50;;;;;;;;5027837;28;11607;-75
2022/12/21 00:03:15;;;;;;;;;31.25;29.75;;;;;;;;5028051;28;8804;-75
2022/12/21 00:05:41;;;;;;;;;45.50;35.00;;;;;;;;5011553;28;8978;-75
2022/12/21 00:08:06;;;;;;;;;43.00;35.00;;;;;;;;5027899;28;8878;-74
2022/12/21 00:10:31;;;;;;;;;37.75;29.00;;;;;;;;5027874;28;8787;-75
2022/12/21 00:12:56;;;;;;;;;45.00;41.25;;;;;;;;5027738;28;9590;-75
2022/12/21 00:15:21;;;;;;;;;45.00;40.00;;;;;;;;5027931;28;8913;-75
2022/12/21 00:17:47;;;;;;;;;34.75;29.50;;;;;;;;5027475;28;8906;-75
2022/12/21 00:20:12;;;;;;;;;21.50;21.50;;;;;;;;5028292;28;8799;-74
2022/12/21 00:22:37;;;;;;;;;28.50;24.25;;;;;;;;5030220;28;8808;-75
2022/12/21 00:25:03;;;;;;;;;25.00;24.00;;;;;;;;5030213;28;8901;-75
2022/12/21 00:27:28;;;;;;;;;24.25;23.75;;;;;;;;5030092;28;8851;-75
2022/12/21 00:29:53;;;;;;;;;23.50;22.25;;;;;;;;5030408;28;8815;-75
2022/12/21 00:32:19;;;;;;;;;24.00;21.25;;;;;;;;5029318;28;8823;-75
2022/12/21 00:34:44;;;;;;;;;24.75;22.25;;;;;;;;5045436;28;8816;-75
2022/12/21 00:37:09;;;;;;;;;24.75;21.00;;;;;;;;5030026;28;8869;-75
2022/12/21 00:39:35;;;;;;;;;29.25;23.25;;;;;;;;5031136;28;8815;-75
2022/12/21 00:42:00;;;;;;;;;24.50;20.50;;;;;;;;5034027;28;8800;-75
2022/12/21 00:44:26;;;;;;;;;23.00;20.50;;;;;;;;5033993;28;9001;-75
2022/12/21 00:46:51;;;;;;;;;21.50;20.50;;;;;;;;5034083;28;8838;-75
2022/12/21 00:49:16;;;;;;;;;8.25;8.25;;;;;;;;5032653;28;8908;-75
2022/12/21 00:51:41;;;;;;;;;23.50;20.50;;;;;;;;5034135;28;8815;-75
2022/12/21 00:54:06;;;;;;;;;;;;;;;;;;5036712;28;8796;-75
2022/12/21 00:56:32;;;;;;;;;;;;;;;;;;5035830;28;7525;-75
2022/12/21 00:58:57;;;;;;;;;;;;;;;;;;5034272;28;7517;-76
2022/12/21 01:01:22;;;;;;;;;;;;;;;;;;5035667;28;7980;-75
2022/12/21 01:03:47;;;;;;;;;;;;;;;;;;5034267;28;7608;-75
2022/12/21 01:06:12;;;;;;;;;;;;;;;;;;5034060;28;7521;-75
2022/12/21 01:08:37;;;;;;;;;;;;;;;;;;5035370;28;7536;-75
2022/12/21 01:11:02;;;;;;;;;;;;;;;;;;5035368;28;7537;-75
2022/12/21 01:13:27;;;;;;;;;;;;;;;;;;5035312;28;7517;-75
2022/12/21 01:15:53;;;;;;;;;;;;;;;;;;5035388;28;7532;-75
2022/12/21 01:18:18;;;;;;;;;;;;;;;;;;5035260;28;7582;-75
2022/12/21 01:20:43;;;;;;;;;;;;;;;;;;5035186;28;7545;-75
2022/12/21 01:23:08;;;;;;;;;;;;;;;;;;5035132;28;7536;-76
2022/12/21 01:25:33;;;;;;;;;;;;;;;;;;5035282;28;7545;-76
2022/12/21 01:27:59;;;;;;;;;;;;;;;;;;5035392;28;7982;-77
2022/12/21 01:30:27;;;;;;;;;;;;;;;;;;5034196;28;7548;-77
2022/12/21 01:32:52;;;;;;;;;;;;;;;;;;5035476;28;7529;-77
2022/12/21 01:35:17;;;;;;;;;;;;;;;;;;5035340;28;7547;-77
2022/12/21 01:37:42;;;;;;;;;;;;;;;;;;5035343;28;7533;-77
2022/12/21 01:40:08;;;;;;;;;;;;;;;;;;5035025;28;7552;-77
2022/12/21 01:42:33;;;;;;;;;;;;;;;;;;5034995;28;7528;-76
2022/12/21 01:44:58;;;;;;;;;;;;;;;;;;5034951;28;7521;-76
2022/12/21 01:47:24;;;;;;;;;;;;;;;;;;5034861;28;7571;-77
2022/12/21 01:49:49;;;;;;;;;;;;;;;;;;5034669;28;7541;-77
2022/12/21 01:52:14;;;;;;;;;;;;;;;;;;5034845;28;7956;-75
2022/12/21 01:54:39;;;;;;;;;;;;;;;;;;5034595;28;7591;-75
2022/12/21 01:57:04;;;;;;;;;;;;;;;;;;5035061;28;7538;-80
2022/12/21 01:59:29;;;;;;;;;;;;;;;;;;5034003;28;7543;-87
2022/12/21 02:01:54;;;;;;;;;;;;;;;;;;5043431;28;7537;-84
2022/12/21 02:04:19;;;;;;;;;;;;;;;;;;5046131;28;7604;-86
2022/12/21 02:06:45;;;;;;;;;;;;;;;;;;5036611;28;7537;-86
2022/12/21 02:09:10;;;;;;;;;;;;;;;;;;5035067;28;7513;-87
2022/12/21 02:11:35;;;;;;;;;;;;;;;;;;5036234;28;7532;-88
2022/12/21 02:14:00;;;;;;;;;;;;;;;;;;5036064;28;7521;-90
2022/12/21 02:16:25;;;;;;;;;;;;;;;;;;5036480;28;7525;-89
2022/12/21 02:18:51;;;;;;;;;;;;;;;;;;5034768;28;7533;-89
2022/12/21 02:21:16;;;;;;;;;;;;;;;;;;5034840;28;7517;-87
2022/12/21 02:23:41;;;;;;;;;;;;;;;;;;5034604;28;7537;-87
2022/12/21 02:26:06;;;;;;;;;;;;;;;;;;5035488;28;7529;-87
2022/12/21 02:28:31;;;;;;;;;;;;;;;;;;5035627;28;7522;-89
2022/12/21 02:30:56;;;;;;;;;;;;;;;;;;5036057;28;7564;-87
2022/12/21 02:33:21;;;;;;;;;;;;;;;;;;5034318;28;7517;-88
2022/12/21 02:35:46;;;;;;;;;;;;;;;;;;5033619;28;7522;-88
2022/12/21 02:38:11;;;;;;;;;;;;;;;;;;5033993;28;7518;-88
2022/12/21 02:40:37;;;;;;;;;;;;;;;;;;5034826;28;7620;-87
2022/12/21 02:45:46;;;;;;;;;;;;;;;;;;5034882;28;7960;-88
2022/12/21 02:48:11;;;;;;;;;;;;;;;;;;5035610;28;7984;-88
2022/12/21 02:50:36;;;;;;;;;;;;;;;;;;5034824;28;7521;-89
2022/12/21 02:53:01;;;;;;;;;;;;;;;;;;5035391;28;7525;-88
2022/12/21 02:55:26;;;;;;;;;;;;;;;;;;5034851;28;7529;-88
2022/12/21 02:57:51;;;;;;;;;;;;;;;;;;5033164;28;7547;-88
2022/12/21 03:00:17;;;;;;;;;;;;;;;;;;5034233;28;7539;-88
2022/12/21 03:02:42;;;;;;;;;;;;;;;;;;5041183;28;7529;-88
2022/12/21 03:05:12;;;;;;;;;;;;;;;;;;5044183;28;7520;-86
2022/12/21 03:07:37;;;;;;;;;;;;;;;;;;5035499;28;7525;-89
2022/12/21 03:10:02;;;;;;;;;;;;;;;;;;5033791;28;7612;-87
2022/12/21 03:12:27;;;;;;;;;;;;;;;;;;5034464;28;7537;-88
2022/12/21 03:14:52;;;;;;;;;;;;;;;;;;5034157;28;7525;-85
2022/12/21 03:17:18;;;;;;;;;;;;;;;;;;5034406;28;7541;-85
2022/12/21 03:19:43;;;;;;;;;;;;;;;;;;5034003;28;7537;-87
2022/12/21 03:22:08;;;;;;;;;;;;;;;;;;5033838;28;7521;-86
2022/12/21 03:24:33;;;;;;;;;;;;;;;;;;5033821;28;7518;-87
2022/12/21 03:26:59;;;;;;;;;;;;;;;;;;5033786;28;7536;-86
2022/12/21 03:29:24;;;;;;;;;;;;;;;;;;5033884;28;7529;-86
2022/12/21 03:31:49;;;;;;;;;;;;;;;;;;5034248;28;7525;-86
2022/12/21 03:34:14;;;;;;;;;;;;;;;;;;5032668;28;7537;-86
2022/12/21 03:36:39;;;;;;;;;;;;;;;;;;5033761;28;7521;-86
2022/12/21 03:39:04;;;;;;;;;;;;;;;;;;5033467;28;7549;-85
2022/12/21 03:41:29;;;;;;;;;;;;;;;;;;5033448;28;7533;-84
2022/12/21 03:43:54;;;;;;;;;;;;;;;;;;5033751;28;7513;-84
2022/12/21 03:46:20;;;;;;;;;;;;;;;;;;5033343;28;7525;-85
2022/12/21 03:48:45;;;;;;;;;;;;;;;;;;5033560;28;7563;-85
2022/12/21 03:51:10;;;;;;;;;;;;;;;;;;5033562;28;7513;-85
2022/12/21 03:53:35;;;;;;;;;;;;;;;;;;5033816;28;7521;-86
2022/12/21 03:56:00;;;;;;;;;;;;;;;;;;5032644;28;7555;-86
2022/12/21 03:58:25;;;;;;;;;;;;;;;;;;5032457;28;7540;-90
2022/12/21 04:00:50;;;;;;;;;;;;;;;;;;5034168;28;7529;-89
2022/12/21 04:03:15;;;;;;;;;;;;;;;;;;5034319;28;7525;-90
2022/12/21 04:05:41;;;;;;;;;;;;;;;;;;5034343;28;7533;-90
2022/12/21 04:08:06;;;;;;;;;;;;;;;;;;5033790;28;7521;-86
2022/12/21 04:10:31;;;;;;;;;;;;;;;;;;5033587;28;7616;-86
2022/12/21 04:12:56;;;;;;;;;;;;;;;;;;5033841;28;7533;-90
2022/12/21 04:15:21;;;;;;;;;;;;;;;;;;5034199;28;7521;-88
2022/12/21 04:17:46;;;;;;;;;;;;;;;;;;5033509;28;7537;-90
2022/12/21 04:20:11;;;;;;;;;;;;;;;;;;5034067;28;7533;-88
2022/12/21 04:28:07;;;;;;;;;;;;;;;;;;5033259;28;7545;-87
2022/12/21 04:30:33;;;;;;;;;;;;;;;;;;5033371;28;7536;-88
2022/12/21 04:32:58;;;;;;;;;;;;;;;;;;5033478;28;7525;-88
2022/12/21 04:35:23;;;;;;;;;;;;;;;;;;5033073;28;7545;-87
2022/12/21 04:37:48;;;;;;;;;;;;;;;;;;5033482;28;7525;-88
2022/12/21 04:40:13;;;;;;;;;;;;;;;;;;5033493;28;7521;-87
2022/12/21 04:42:38;;;;;;;;;;;;;;;;;;5033319;28;7529;-88
2022/12/21 04:45:03;;;;;;;;;;;;;;;;;;5031535;28;7616;-88
2022/12/21 04:47:28;;;;;;;;;;;;;;;;;;5033011;28;7536;-88
2022/12/21 04:49:54;;;;;;;;;;;;;;;;;;5033389;28;7540;-90
2022/12/21 04:52:19;;;;;;;;;;;;;;;;;;5031863;28;7608;-87
2022/12/21 04:54:44;;;;;;;;;;;;;;;;;;5032052;28;7533;-89
2022/12/21 04:57:09;;;;;;;;;;;;;;;;;;5033241;28;7517;-88
2022/12/21 04:59:34;;;;;;;;;;;;;;;;;;5032833;28;7545;-88
2022/12/21 05:01:59;;;;;;;;;;;;;;;;;;5032017;28;7513;-88
2022/12/21 05:04:24;;;;;;;;;;;;;;;;;;5032994;28;7545;-90
2022/12/21 05:06:49;;;;;;;;;;;;;;;;;;5032029;28;7513;-89
2022/12/21 05:09:15;;;;;;;;;;;;;;;;;;5032107;28;7659;-73
2022/12/21 05:11:40;;;;;;;;;;;;;;;;;;5031569;28;7579;-74
2022/12/21 05:14:05;;;;;;;;;;;;;;;;;;5030093;28;7525;-74
2022/12/21 05:16:30;;;;;;;;;;;;;;;;;;5031571;28;7541;-74
2022/12/21 05:18:56;;;;;;;;;;;;;;;;;;5031167;28;7968;-75
2022/12/21 05:21:21;;;;;;;;;;;;;;;;;;5031551;28;7540;-74
2022/12/21 05:23:46;;;;;;;;;;;;;;;;;;5031396;28;7509;-74
2022/12/21 05:26:11;;;;;;;;;;;;;;;;;;5033262;28;7619;-75
2022/12/21 05:28:36;;;;;;;;;;;;;;;;;;5034221;28;7556;-75
2022/12/21 05:31:01;;;;;;;;;;;;;;;;;;5033480;28;7533;-75
2022/12/21 05:33:26;;;;;;;;;;;;;;;;;;5033458;28;7529;-76
2022/12/21 05:35:52;;;;;;;;;;;;;;;;;;5030523;28;7514;-75
2022/12/21 05:38:17;;;;;;;;;;;;;;;;;;5033474;28;7537;-75
2022/12/21 05:40:42;;;;;;;;;;;;;;;;;;5032475;28;7599;-77
2022/12/21 05:43:07;;;;;;;;;;;;;;;;;;5030499;28;7541;-76
2022/12/21 05:45:32;;;;;;;;;;;;;;;;;;5033049;28;7612;-76
2022/12/21 05:47:57;;;;;;;;;;;;;;;;;;5030752;28;7541;-76
2022/12/21 05:50:22;;;;;;;;;;;;;;;;;;5033136;28;7525;-76
2022/12/21 05:52:47;;;;;;;;;;;;;;;;;;5033317;28;7532;-79
2022/12/21 05:55:12;;;;;;;;;;;;;;;;;;5033708;28;7525;-79
2022/12/21 05:57:38;;;;;;;;;;;;;;;;;;5033673;28;7541;-79
2022/12/21 06:00:03;;;;;;;;;;;;;;;;;;5033657;28;7612;-80
2022/12/21 06:02:28;;;;;;;;;;;;;;;;;;5033865;28;7537;-79
2022/12/21 06:04:53;;;;;;;;;;;;;;;;;;5033195;28;7552;-78
2022/12/21 06:07:18;;;;;;;;;;;;;;;;;;5033818;28;7536;-78
2022/12/21 06:09:43;;;;;;;;;;;;;;;;;;5033584;28;7525;-76
2022/12/21 06:12:08;;;;;;;;;;;;;;;;;;5034448;28;7563;-87
2022/12/21 06:14:33;;;;;;;;;;;;;;;;;;5034555;28;7521;-85
2022/12/21 06:16:58;;;;;;;;;;;;;;;;;;5034618;28;7541;-86
2022/12/21 06:19:24;;;;;;;;;;;;;;;;;;5033890;28;7533;-90
2022/12/21 06:21:49;;;;;;;;;;;;;;;;;;5032723;28;7525;-83
2022/12/21 06:24:14;;;;;;;;;;;;;;;;;;5031566;28;7607;-86
2022/12/21 06:26:39;;;;;;;;;;;;;;;;;;5029308;28;7964;-81
2022/12/21 06:29:04;;;;;;;;;;;;;;;;;;5025984;28;7533;-80
2022/12/21 06:31:29;;;;;;;;;;;;;;;;;;5023745;28;7622;-80
2022/12/21 06:33:55;;;;;;;;;;;;;;;;;;5032991;28;7968;-79
2022/12/21 06:36:20;;;;;;;;;;;;;;;;;;5032899;28;7533;-73
2022/12/21 06:38:45;;;;;;;;;;;;;;;;;;5032433;28;7651;-79
2022/12/21 06:41:10;;;;;;;;;;;;;;;;;;5032539;28;7533;-75
2022/12/21 06:43:35;;;;;;;;;;;;;;;;;;5032022;28;7517;-75
2022/12/21 06:46:00;;;;;;;;;;;;;;;;;;5032715;28;7598;-79
2022/12/21 06:48:26;;;;;;;;;;;;;;;;;;5031429;28;7584;-85
2022/12/21 06:50:51;;;;;;;;;;;;;;;;;;5029722;28;7595;-83
2022/12/21 06:53:16;;;;;;;;;;;;;;;;;;5031761;28;7965;-83
2022/12/21 06:55:41;;;;;;;;;;;;;;;;;;5032686;28;7541;-83
2022/12/21 06:58:06;;;;;;;;;;;;;;;;;;5030926;28;7624;-82
2022/12/21 07:00:31;;;;;;;;;;;;;;;;;;5032804;28;7533;-80
2022/12/21 07:02:56;;;;;;;;;;;;;;;;;;5028429;28;7525;-80
2022/12/21 07:05:22;;;;;;;;;;;;;;;;;;5013065;28;7557;-79
2022/12/21 07:07:47;;;;;;;;;;;;;;;;;;5031854;28;8004;-81
2022/12/21 07:10:12;;;;;;;;;;;;;;;;;;5019859;28;7537;-74
2022/12/21 07:12:37;;;;;;;;;;;;;;;;;;5030530;28;7639;-76
2022/12/21 07:15:02;;;;;;;;;;;;;;;;;;5042551;28;7517;-75
2022/12/21 07:17:27;;;;;;;;;;;;;;;;;;5050325;28;7561;-74
2022/12/21 07:19:52;;;;;;;;;;;;;;;;;;5050753;28;7631;-81
2022/12/21 20:24:15;;;;;;;;;59.00;48.67;;;;;;;;5102251;27;14291;-81
2022/12/21 20:26:42;;;;;;;;;80.00;60.00;;;;;;;;5104976;28;8840;-80
2022/12/21 20:29:12;;;;;;;;;113.75;104.75;;;;;;;;5103814;28;8826;-83
2022/12/21 20:31:40;;;;;;;;;84.67;65.00;;;;;;;;5096600;28;8835;-85
2022/12/21 20:34:05;;;;;;;;;67.00;56.67;;;;;;;;5105050;28;8863;-78
2022/12/21 20:36:36;;;;;;;;;67.67;54.33;;;;;;;;5106487;28;8831;-84
2022/12/21 20:39:05;;;;;;;;;68.67;54.67;;;;;;;;5105270;28;8862;-85
2022/12/21 20:43:42;;;;;;;;;65.00;51.00;;;;;;;;5108912;27;8877;-79
2022/12/21 20:44:16;;;;;;;;;59.33;47.67;;;;;;;;5103466;28;8823;-82
2022/12/21 20:46:44;;;;;;;;;60.67;49.67;;;;;;;;5106408;28;8784;-82
2022/12/21 20:49:18;;;;;;;;;58.67;45.67;;;;;;;;5104984;28;8796;-80
2022/12/21 20:51:43;;;;;;;;;63.33;52.00;;;;;;;;5106256;28;9599;-78
2022/12/21 20:54:13;;;;;;;;;62.33;49.33;;;;;;;;5106009;28;8768;-77
2022/12/21 20:56:38;;;;;;;;;63.67;52.00;;;;;;;;5102054;28;8813;-77
2022/12/21 20:59:04;;;;;;;;;61.33;49.67;;;;;;;;5105488;28;8804;-78
2022/12/21 21:01:32;;;;;;;;;63.00;49.33;;;;;;;;5106131;28;8843;-79
2022/12/21 21:03:57;;;;;;;;;65.67;50.00;;;;;;;;5105803;28;8858;-77
2022/12/21 21:06:22;;;;;;;;;54.00;43.67;;;;;;;;5103176;27;9558;-77
2022/12/21 21:08:48;;;;;;;;;60.33;50.33;;;;;;;;5063565;28;10104;-76
2022/12/21 21:14:03;;;;;;;;;61.33;49.00;;;;;;;;5065307;28;8689;-78
2022/12/21 21:16:33;;;;;;;;;61.67;47.67;;;;;;;;5064734;28;8813;-77
2022/12/21 21:18:58;;;;;;;;;53.00;45.00;;;;;;;;5060137;28;8809;-78
2022/12/21 21:24:08;;;;;;;;;65.33;49.33;;;;;;;;5064902;28;8952;-77
2022/12/21 21:26:34;;;;;;;;;54.67;45.00;;;;;;;;5064258;28;8959;-79
2022/12/21 21:28:59;;;;;;;;;57.00;48.00;;;;;;;;5063163;28;8805;-77
2022/12/21 21:31:24;;;;;;;;;56.67;45.00;;;;;;;;5064077;28;8197;-78
2022/12/21 21:33:53;;;;;;;;;57.33;47.33;;;;;;;;5061284;28;8836;-78
2022/12/21 21:36:23;;;;;;;;;52.50;44.50;;;;;;;;5051178;28;9550;-76
2022/12/21 21:41:35;;;;;;;;;52.00;44.67;;;;;;;;5049314;28;11514;-77
2022/12/21 21:44:00;;;;;;;;;61.33;46.67;;;;;;;;5051125;28;11573;-79
2022/12/21 21:46:26;;;;;;;;;58.33;46.67;;;;;;;;5049270;28;8817;-79
2022/12/21 21:48:51;;;;;;;;;55.33;44.33;;;;;;;;5051927;28;9875;-81
2022/12/21 21:51:22;;;;;;;;;58.00;49.00;;;;;;;;5067348;28;8829;-79
2022/12/21 21:53:48;;;;;;;;;58.67;48.00;;;;;;;;5051500;28;9597;-82
2022/12/21 21:56:16;;;;;;;;;61.00;50.33;;;;;;;;5051110;28;8805;-84
2022/12/21 21:58:44;;;;;;;;;50.00;40.67;;;;;;;;5049667;28;8813;-84
2022/12/21 22:01:11;;;;;;;;;55.00;45.00;;;;;;;;5050703;28;12285;-84
2022/12/21 22:03:37;;;;;;;;;58.00;46.33;;;;;;;;5048527;28;11656;-80
2022/12/21 22:06:02;;;;;;;;;61.67;48.67;;;;;;;;5050480;28;11556;-81
2022/12/21 22:08:27;;;;;;;;;60.33;47.00;;;;;;;;5048419;28;8793;-84
2022/12/21 22:10:52;;;;;;;;;59.67;49.00;;;;;;;;5051422;28;8829;-81
2022/12/21 22:13:19;;;;;;;;;51.25;46.25;;;;;;;;5051215;28;8809;-81
2022/12/21 22:15:54;;;;;;;;;40.50;37.25;;;;;;;;5048060;28;9929;-76
2022/12/21 22:18:19;;;;;;;;;54.50;45.00;;;;;;;;5046849;28;11540;-77
2022/12/21 22:42:56;;;;;;;;;60.33;47.33;;;;;;;;5069925;28;11541;-76
2022/12/21 22:45:21;;;;;;;;;55.33;44.67;;;;;;;;5069574;28;11557;-76
2022/12/21 22:47:47;;;;;;;;;56.67;46.67;;;;;;;;5069964;28;8802;-76
2022/12/21 22:50:13;;;;;;;;;59.67;47.67;;;;;;;;5069086;28;8872;-76
2022/12/21 22:52:44;;;;;;;;;56.67;44.00;;;;;;;;5071608;28;8798;-76
2022/12/21 22:55:16;;;;;;;;;57.33;48.00;;;;;;;;5070418;28;8814;-77
2022/12/21 22:57:42;;;;;;;;;62.33;45.33;;;;;;;;5071795;28;8879;-76
2022/12/21 23:00:08;;;;;;;;;58.33;48.67;;;;;;;;5070022;28;11540;-77
2022/12/21 23:02:33;;;;;;;;;54.50;43.25;;;;;;;;5069781;28;9505;-77
2022/12/21 23:04:59;;;;;;;;;56.00;44.00;;;;;;;;5071359;28;11605;-76
2022/12/21 23:07:24;;;;;;;;;54.00;46.33;;;;;;;;5071235;28;9571;-76
2022/12/21 23:09:55;;;;;;;;;50.67;44.00;;;;;;;;5086640;28;8825;-77
2022/12/21 23:15:05;;;;;;;;;52.00;44.67;;;;;;;;5071268;28;8782;-76
2022/12/21 23:20:24;;;;;;;;;51.00;43.33;;;;;;;;5071151;28;8782;-77
2022/12/21 23:28:28;;;;;;;;;57.50;43.25;;;;;;;;5070711;28;11539;-76
2022/12/21 23:45:03;;;;;;;;;60.00;50.00;;;;;;;;5070761;28;8945;-76
